Wednesday, October 22, 2014, 12:42 AM EDT

KLKU, Louisa, Louisa County Airport/freeman Field

Location: Louisa, VA, United States Lat: 38.01
Local Time: 12:42 AM EDT ( 4:42 GMT) Lon: -77.97
Time Zone: US/Eastern Elev: 492 ft

Show me the last for .
Show Decoded

2014-10-22 00:15 METAR KLKU 220415Z AUTO 00000KT 10SM -DZ OVC050 12/10 A2990 RMK AO2 =
2014-10-21 23:55 METAR KLKU 220355Z AUTO 31003KT 10SM OVC050 12/10 A2990 RMK AO2 =
2014-10-21 23:35 METAR KLKU 220335Z AUTO 31003KT 10SM OVC050 12/10 A2991 RMK AO2 =
2014-10-21 23:15 METAR KLKU 220315Z AUTO 29003KT 10SM BKN055 BKN100 11/10 A2991 RMK AO2 =
2014-10-21 22:55 METAR KLKU 220255Z AUTO 34004KT 10SM BKN090 11/11 A2991 RMK AO2 =
2014-10-21 22:35 METAR KLKU 220235Z AUTO 32003KT 10SM BKN090 11/10 A2991 RMK AO2 =
2014-10-21 22:15 METAR KLKU 220215Z AUTO 32003KT 10SM SCT050 BKN080 12/11 A2991 RMK AO2 =
2014-10-21 21:55 METAR KLKU 220155Z AUTO 00000KT 10SM SCT038 SCT044 BKN080 12/11 A2991 RMK AO2 =
2014-10-21 21:35 METAR KLKU 220135Z AUTO 34003KT 10SM -DZ SCT028 BKN039 BKN045 12/11 A2990 RMK
                 AO2 =
2014-10-21 21:15 METAR KLKU 220115Z AUTO 00000KT 10SM RA SCT031 SCT055 BKN065 12/11 A2990 RMK AO2
                 =
2014-10-21 20:55 METAR KLKU 220055Z AUTO 34004KT 10SM SCT065 OVC075 12/11 A2989 RMK AO2 P0001 =
2014-10-21 20:35 METAR KLKU 220035Z AUTO 00000KT 10SM BKN075 OVC095 12/11 A2990 RMK AO2 P0001 =
2014-10-21 20:15 METAR KLKU 220015Z AUTO 33003KT 10SM BKN065 OVC095 12/11 A2989 RMK AO2 P0001 =
2014-10-21 19:55 METAR KLKU 212355Z AUTO 00000KT 10SM OVC065 13/12 A2988 RMK AO2 =
2014-10-21 19:35 METAR KLKU 212335Z AUTO 00000KT 10SM BKN065 OVC090 13/11 A2987 RMK AO2 =
2014-10-21 19:15 METAR KLKU 212315Z AUTO 01003KT 10SM BKN065 OVC080 13/11 A2987 RMK AO2 =
2014-10-21 18:55 METAR KLKU 212255Z AUTO 00000KT 10SM OVC055 13/11 A2986 RMK AO2 P0006 =
2014-10-21 18:35 METAR KLKU 212235Z AUTO 36004KT 10SM -DZ OVC055 13/11 A2986 RMK AO2 P0006 =
2014-10-21 18:15 METAR KLKU 212215Z AUTO 36005KT 10SM -RA SCT048 OVC055 13/11 A2984 RMK AO2 P0006
                 =
2014-10-21 17:55 METAR KLKU 212155Z AUTO 32012G20KT 10SM -RA SCT041 BKN048 OVC055 15/10 A2984 RMK
                 AO2 =
2014-10-21 17:35 METAR KLKU 212135Z AUTO 30012G22KT 10SM SCT039 BKN060 OVC070 16/09 A2983 RMK AO2
                 =
2014-10-21 17:15 METAR KLKU 212115Z AUTO 00000KT 10SM BKN070 BKN085 BKN110 17/12 A2979 RMK AO2 =
2014-10-21 16:55 METAR KLKU 212055Z AUTO 00000KT 10SM BKN110 19/11 A2979 RMK AO2 =
2014-10-21 16:35 METAR KLKU 212035Z AUTO 00000KT 10SM BKN110 18/10 A2979 RMK AO2 =
2014-10-21 16:15 METAR KLKU 212015Z AUTO 11003KT 10SM SCT029 SCT050 BKN110 19/09 A2979 RMK AO2 =
2014-10-21 15:55 METAR KLKU 211955Z AUTO 12004KT 10SM RA SCT038 BKN060 OVC070 16/11 A2980 RMK AO2
                 =
2014-10-21 15:35 METAR KLKU 211935Z AUTO 00000KT 7SM DZ SCT050 OVC070 16/12 A2981 RMK AO2 =
2014-10-21 15:15 METAR KLKU 211915Z AUTO 25008KT 10SM DZ SCT044 BKN060 OVC070 17/09 A2981 RMK AO2
                 =
2014-10-21 14:55 METAR KLKU 211855Z AUTO 26005KT 10SM SCT060 SCT075 BKN100 19/08 A2980 RMK AO2 =
2014-10-21 14:35 METAR KLKU 211835Z AUTO 29004KT 10SM SCT100 21/08 A2980 RMK AO2 =
2014-10-21 14:15 METAR KLKU 211815Z AUTO 00000KT 10SM SCT060 21/08 A2980 RMK AO2 =
2014-10-21 13:55 METAR KLKU 211755Z AUTO 16005KT 10SM BKN060 BKN070 BKN085 21/09 A2981 RMK AO2 =
2014-10-21 13:35 METAR KLKU 211735Z AUTO 29004KT 10SM SCT060 SCT085 21/09 A2982 RMK AO2 =
2014-10-21 13:15 METAR KLKU 211715Z AUTO 19003KT 10SM CLR 20/09 A2983 RMK AO2 =
2014-10-21 12:55 METAR KLKU 211655Z AUTO 00000KT 10SM CLR 20/09 A2984 RMK AO2 =
2014-10-21 12:35 METAR KLKU 211635Z AUTO 00000KT 10SM CLR 19/09 A2985 RMK AO2 =
2014-10-21 12:15 METAR KLKU 211615Z AUTO 25004KT 10SM CLR 20/09 A2985 RMK AO2 =
2014-10-21 11:55 METAR KLKU 211555Z AUTO 30007KT 240V340 10SM CLR 19/09 A2986 RMK AO2 =
2014-10-21 11:35 METAR KLKU 211535Z AUTO 29005KT 10SM CLR 20/09 A2986 RMK AO2 =
2014-10-21 11:15 METAR KLKU 211515Z AUTO 29006KT 10SM CLR 19/11 A2987 RMK AO2 =
2014-10-21 10:55 METAR KLKU 211455Z AUTO 00000KT 10SM CLR 18/11 A2987 RMK AO2 =
2014-10-21 10:35 METAR KLKU 211435Z AUTO 00000KT 10SM CLR 17/11 A2987 RMK AO2 =
2014-10-21 10:15 METAR KLKU 211415Z AUTO 00000KT 10SM CLR 17/11 A2988 RMK AO2 =
2014-10-21 09:35 METAR KLKU 211335Z AUTO 00000KT 10SM SCT120 15/11 A2988 RMK AO2 =
2014-10-21 09:15 METAR KLKU 211315Z AUTO 00000KT 10SM CLR 13/11 A2987 RMK AO2 =
2014-10-21 08:55 METAR KLKU 211255Z AUTO 00000KT 10SM CLR 12/10 A2988 RMK AO2 =
2014-10-21 08:35 METAR KLKU 211235Z AUTO 00000KT 10SM CLR 11/09 A2988 RMK AO2 =
2014-10-21 08:15 METAR KLKU 211215Z AUTO 00000KT 10SM CLR 11/09 A2987 RMK AO2 =
2014-10-21 07:55 METAR KLKU 211155Z AUTO 23003KT 10SM CLR 11/09 A2987 RMK AO2 =
2014-10-21 07:35 METAR KLKU 211135Z AUTO 24004KT 10SM CLR 10/09 A2987 RMK AO2 =
2014-10-21 07:15 METAR KLKU 211115Z AUTO 00000KT 10SM CLR 09/08 A2987 RMK AO2 =
2014-10-21 06:55 METAR KLKU 211055Z AUTO 00000KT 10SM SCT080 10/08 A2987 RMK AO2 =
2014-10-21 06:35 METAR KLKU 211035Z AUTO 00000KT 10SM SCT080 BKN100 11/09 A2986 RMK AO2 =
2014-10-21 05:55 METAR KLKU 210955Z AUTO 00000KT 10SM SCT080 OVC110 11/09 A2986 RMK AO2 =
2014-10-21 05:35 METAR KLKU 210935Z AUTO 00000KT 10SM OVC100 11/10 A2986 RMK AO2 =
2014-10-21 05:15 METAR KLKU 210915Z AUTO 00000KT 10SM OVC100 11/09 A2987 RMK AO2 =
2014-10-21 04:55 METAR KLKU 210855Z AUTO 00000KT 10SM OVC110 11/09 A2987 RMK AO2 =
2014-10-21 04:35 METAR KLKU 210835Z AUTO 00000KT 10SM BKN110 10/08 A2987 RMK AO2 =
2014-10-21 04:15 METAR KLKU 210815Z AUTO 00000KT 10SM BKN110 11/09 A2987 RMK AO2 =
2014-10-21 03:55 METAR KLKU 210755Z AUTO 00000KT 10SM SCT110 11/09 A2987 RMK AO2 =
2014-10-21 03:35 METAR KLKU 210735Z AUTO 00000KT 10SM SCT120 11/09 A2988 RMK AO2 =
2014-10-21 03:15 METAR KLKU 210715Z AUTO 00000KT 10SM SCT110 13/09 A2988 RMK AO2 =
2014-10-21 02:55 METAR KLKU 210655Z AUTO 17003KT 10SM SCT050 SCT070 BKN075 13/09 A2988 RMK AO2 =
2014-10-21 02:35 METAR KLKU 210635Z AUTO 00000KT 10SM SCT050 BKN055 BKN070 13/09 A2989 RMK AO2 =
2014-10-21 02:15 METAR KLKU 210615Z AUTO 00000KT 10SM SCT050 BKN070 12/09 A2990 RMK AO2 =
2014-10-21 01:55 METAR KLKU 210555Z AUTO 00000KT 10SM SCT070 12/08 A2990 RMK AO2 =
2014-10-21 01:35 METAR KLKU 210535Z AUTO 00000KT 10SM CLR 12/08 A2990 RMK AO2 =
2014-10-21 01:15 METAR KLKU 210515Z AUTO 20003KT 10SM SCT100 13/08 A2991 RMK AO2 =
2014-10-21 00:55 METAR KLKU 210455Z AUTO 20003KT 10SM BKN110 13/08 A2992 RMK AO2 =

Support USWX by starting your Amazon purchase here.